Time;durP1;ratioP1;P1;durP2;ratioP2;P2;SDS_P1;SDS_P2;PMS_P1;PMS_P2;Temp;Humidity;BMP_temperature;BMP_pressure;BME280_temperature;BME280_humidity;BME280_pressure;Samples;Min_cycle;Max_cycle;Signal;HPM_P1;HPM_P2
2023/06/05 00:01:10;;;;;;;10.85;5.65;;;11.30;99.90;;;;;;4882603;29;20120;-90
2023/06/05 00:03:37;;;;;;;11.40;5.35;;;11.30;99.90;;;;;;4882436;29;20445;-90
2023/06/05 00:06:03;;;;;;;8.05;6.25;;;11.40;99.90;;;;;;4882992;29;20572;-90
2023/06/05 00:08:29;;;;;;;8.40;5.45;;;11.40;99.90;;;;;;4871331;29;20457;-90
2023/06/05 00:10:55;;;;;;;7.55;5.13;;;11.40;99.90;;;;;;4862811;29;20119;-91
2023/06/05 00:13:21;;;;;;;8.52;4.95;;;11.40;99.90;;;;;;4890080;29;20075;-89
2023/06/05 00:15:47;;;;;;;7.90;4.95;;;11.50;99.90;;;;;;4881209;29;20044;-90
2023/06/05 00:18:14;;;;;;;8.27;5.30;;;11.50;99.90;;;;;;4879110;29;20169;-89
2023/06/05 00:20:40;;;;;;;8.88;5.47;;;11.50;99.90;;;;;;4867573;29;20074;-90
2023/06/05 00:23:06;;;;;;;8.10;5.10;;;11.50;99.90;;;;;;4878209;29;20078;-90
2023/06/05 00:25:31;;;;;;;10.07;5.07;;;11.50;99.90;;;;;;4864629;29;20048;-90
2023/06/05 00:27:57;;;;;;;9.23;4.85;;;11.60;99.90;;;;;;4874774;29;20044;-90
2023/06/05 00:30:23;;;;;;;9.93;4.70;;;11.50;99.90;;;;;;4892966;29;20519;-89
2023/06/05 00:32:48;;;;;;;10.38;5.10;;;11.50;99.90;;;;;;4879378;29;20457;-90
2023/06/05 00:35:14;;;;;;;10.73;5.10;;;11.60;99.90;;;;;;4875287;29;20401;-90
2023/06/05 00:37:40;;;;;;;8.70;5.57;;;11.60;99.90;;;;;;4864021;29;20055;-90
2023/06/05 00:40:07;;;;;;;9.05;4.85;;;11.60;99.90;;;;;;4864983;29;20059;-89
2023/06/05 00:42:32;;;;;;;8.88;5.97;;;11.60;99.90;;;;;;4879742;29;20401;-89
2023/06/05 00:44:58;;;;;;;9.68;5.75;;;11.60;99.90;;;;;;4877216;29;20052;-89
2023/06/05 00:47:24;;;;;;;7.75;5.38;;;11.60;99.90;;;;;;4874424;29;20051;-89
2023/06/05 00:49:50;;;;;;;8.68;4.95;;;11.60;99.90;;;;;;4878352;29;20072;-89
2023/06/05 00:52:16;;;;;;;11.25;4.60;;;11.60;99.90;;;;;;4862105;29;20516;-89
2023/06/05 00:54:43;;;;;;;13.15;5.55;;;11.60;99.90;;;;;;4878735;29;20047;-89
2023/06/05 00:57:09;;;;;;;10.18;4.80;;;11.60;99.90;;;;;;4880504;29;20055;-89
2023/06/05 00:59:36;;;;;;;7.78;4.25;;;11.50;99.90;;;;;;4877022;29;20036;-89
2023/06/05 01:02:02;;;;;;;8.00;4.60;;;11.50;99.90;;;;;;4874690;29;20084;-89
2023/06/05 01:04:29;;;;;;;12.18;4.63;;;11.50;99.90;;;;;;4877184;29;20084;-89
2023/06/05 01:06:57;;;;;;;8.38;5.10;;;11.50;99.90;;;;;;4871809;29;20036;-90
2023/06/05 01:09:26;;;;;;;10.23;4.60;;;11.50;99.90;;;;;;4875184;29;20048;-89
2023/06/05 01:12:03;;;;;;;6.47;4.05;;;11.50;99.90;;;;;;4871872;29;20075;-89
2023/06/05 01:14:33;;;;;;;9.38;4.53;;;11.50;99.90;;;;;;4882010;29;20194;-89
2023/06/05 01:17:02;;;;;;;8.95;4.63;;;11.50;99.90;;;;;;4891718;29;20424;-89
2023/06/05 01:19:28;;;;;;;8.18;4.80;;;11.40;99.90;;;;;;4877044;29;20057;-90
2023/06/05 01:21:55;;;;;;;10.77;4.30;;;11.40;99.90;;;;;;4877235;29;20500;-90
2023/06/05 01:24:27;;;;;;;6.85;3.85;;;11.30;99.90;;;;;;4881905;29;20124;-89
2023/06/05 01:27:00;;;;;;;12.65;4.43;;;11.30;99.90;;;;;;4865575;29;20048;-89
2023/06/05 01:29:48;;;;;;;11.50;4.40;;;11.30;99.90;;;;;;4877691;29;20048;-89
2023/06/05 01:32:21;;;;;;;7.85;4.18;;;11.30;99.90;;;;;;4880566;29;20123;-90
2023/06/05 01:34:48;;;;;;;8.38;4.50;;;11.30;99.90;;;;;;4879117;29;20420;-90
2023/06/05 01:37:18;;;;;;;14.30;4.78;;;11.30;99.90;;;;;;4869446;29;20040;-89
2023/06/05 01:39:47;;;;;;;10.02;4.85;;;11.30;99.90;;;;;;4879913;29;20574;-89
2023/06/05 01:42:14;;;;;;;10.18;4.68;;;11.20;99.90;;;;;;4876941;29;20048;-89
2023/06/05 01:44:41;;;;;;;11.88;4.60;;;11.30;99.90;;;;;;4876477;29;20040;-89
2023/06/05 01:47:08;;;;;;;10.35;5.60;;;11.20;99.90;;;;;;4877567;29;20492;-89
2023/06/05 01:49:34;;;;;;;10.85;6.10;;;11.20;99.90;;;;;;4875690;29;20060;-88
2023/06/05 01:52:00;;;;;;;12.85;6.38;;;11.30;99.90;;;;;;4877978;29;20044;-89
2023/06/05 01:54:26;;;;;;;15.20;6.85;;;11.20;99.90;;;;;;4863261;29;20055;-89
2023/06/05 01:56:52;;;;;;;11.48;6.78;;;11.30;99.90;;;;;;4876764;29;20100;-89
2023/06/05 01:59:19;;;;;;;9.93;5.88;;;11.30;99.90;;;;;;4875767;29;20087;-89
2023/06/05 02:01:45;;;;;;;9.88;6.20;;;11.30;99.90;;;;;;4876150;29;20048;-88
2023/06/05 02:04:16;;;;;;;12.35;5.88;;;11.30;99.90;;;;;;4875499;29;20044;-88
2023/06/05 02:06:42;;;;;;;11.60;6.60;;;11.30;99.90;;;;;;4871592;29;20127;-88
2023/06/05 02:09:10;;;;;;;10.13;6.82;;;11.40;99.90;;;;;;4892704;29;20052;-89
2023/06/05 02:11:38;;;;;;;10.27;6.70;;;10.80;99.90;;;;;;4880156;29;20131;-90
2023/06/05 02:14:06;;;;;;;12.20;6.55;;;11.40;99.90;;;;;;4876669;29;20052;-88
2023/06/05 02:16:33;;;;;;;9.98;6.85;;;11.40;99.90;;;;;;4886138;29;20044;-89
2023/06/05 02:19:06;;;;;;;15.05;7.15;;;11.40;99.90;;;;;;4880242;29;20540;-89
2023/06/05 02:21:32;;;;;;;12.38;6.88;;;11.40;99.90;;;;;;4879954;29;20047;-89
2023/06/05 02:24:00;;;;;;;13.65;5.68;;;11.40;99.90;;;;;;4882364;29;20056;-88
2023/06/05 02:26:27;;;;;;;10.10;5.63;;;11.50;99.90;;;;;;4868502;29;20441;-89
2023/06/05 02:28:54;;;;;;;9.40;4.78;;;11.40;99.90;;;;;;4877001;29;20108;-90
2023/06/05 02:31:24;;;;;;;14.20;5.03;;;11.40;99.90;;;;;;4861686;29;20057;-90
2023/06/05 02:33:52;;;;;;;7.30;4.43;;;11.40;99.90;;;;;;4880112;29;20079;-90
2023/06/05 02:36:18;;;;;;;6.68;3.95;;;11.40;99.90;;;;;;4876500;29;20059;-89
2023/06/05 02:38:44;;;;;;;7.82;4.07;;;11.40;99.90;;;;;;4880226;29;20048;-89
2023/06/05 02:41:11;;;;;;;6.85;3.72;;;11.40;99.90;;;;;;4879020;29;20053;-89
2023/06/05 02:43:38;;;;;;;6.20;4.07;;;11.40;99.90;;;;;;4876275;29;20044;-89
2023/06/05 02:46:04;;;;;;;7.50;3.63;;;11.40;99.90;;;;;;4893341;29;20066;-89
2023/06/05 02:48:30;;;;;;;5.07;3.38;;;11.40;99.90;;;;;;4876472;29;20048;-89
2023/06/05 02:50:56;;;;;;;11.00;4.10;;;11.40;99.90;;;;;;4886720;29;20052;-88
2023/06/05 02:53:21;;;;;;;5.80;3.72;;;11.40;99.90;;;;;;4882528;29;20396;-89
2023/06/05 02:55:47;;;;;;;7.80;3.95;;;11.40;99.90;;;;;;4892173;29;20182;-89
2023/06/05 02:58:15;;;;;;;7.43;3.78;;;11.40;99.90;;;;;;4886727;29;20125;-89
2023/06/05 03:00:41;;;;;;;9.55;3.90;;;11.50;99.90;;;;;;4883027;29;20480;-90
2023/06/05 03:03:07;;;;;;;8.75;4.07;;;11.50;99.90;;;;;;4877467;29;20086;-90
2023/06/05 03:05:33;;;;;;;6.07;3.92;;;11.40;99.90;;;;;;4866576;29;20053;-89
2023/06/05 03:08:01;;;;;;;6.88;4.15;;;11.50;99.90;;;;;;4876724;29;20120;-88
2023/06/05 03:10:27;;;;;;;7.43;4.50;;;11.50;99.90;;;;;;4877675;29;20052;-89
2023/06/05 03:12:53;;;;;;;9.52;4.35;;;11.50;99.90;;;;;;4883018;29;20108;-89
2023/06/05 03:15:19;;;;;;;9.90;4.65;;;11.50;99.90;;;;;;4870926;29;20489;-88
2023/06/05 03:17:45;;;;;;;10.15;4.20;;;11.50;99.90;;;;;;4882701;29;20047;-89
2023/06/05 03:20:12;;;;;;;7.68;4.03;;;11.50;99.90;;;;;;4881955;29;20044;-89
2023/06/05 03:22:38;;;;;;;8.10;4.45;;;11.50;99.90;;;;;;4882632;29;20468;-88
2023/06/05 03:25:05;;;;;;;10.30;4.10;;;11.50;99.90;;;;;;4881563;29;20052;-89
2023/06/05 03:27:31;;;;;;;7.32;4.65;;;11.50;99.90;;;;;;4879094;29;20076;-89
2023/06/05 03:29:58;;;;;;;7.45;4.30;;;11.50;99.90;;;;;;4877395;29;20096;-88
2023/06/05 03:32:24;;;;;;;8.63;4.30;;;11.50;99.90;;;;;;4882537;29;20048;-88
2023/06/05 03:34:50;;;;;;;8.00;4.53;;;11.50;99.90;;;;;;4881660;29;20052;-88
2023/06/05 03:37:16;;;;;;;7.45;3.95;;;11.50;99.90;;;;;;4890638;29;20564;-88
2023/06/05 03:39:42;;;;;;;8.93;4.25;;;11.50;99.90;;;;;;4876495;29;20052;-89
2023/06/05 03:42:10;;;;;;;7.40;4.38;;;11.50;99.90;;;;;;4882655;29;20059;-89
2023/06/05 03:44:36;;;;;;;6.40;4.38;;;11.50;99.90;;;;;;4882726;29;20044;-89
2023/06/05 03:47:03;;;;;;;7.60;3.83;;;11.50;99.90;;;;;;4874730;29;20048;-90
2023/06/05 03:49:28;;;;;;;6.30;3.95;;;11.50;99.90;;;;;;4878336;29;20096;-89
2023/06/05 03:52:01;;;;;;;5.85;3.63;;;11.50;99.90;;;;;;4895007;29;20143;-89
2023/06/05 03:54:27;;;;;;;6.40;4.23;;;11.60;99.90;;;;;;4893421;29;20119;-88
2023/06/05 03:56:55;;;;;;;7.95;3.60;;;11.60;99.90;;;;;;4872926;29;20336;-88
2023/06/05 03:59:22;;;;;;;7.53;3.25;;;11.60;99.90;;;;;;4880497;29;20059;-88
2023/06/05 04:01:48;;;;;;;7.03;3.60;;;11.60;99.90;;;;;;4881984;29;20059;-89
2023/06/05 04:04:14;;;;;;;8.88;3.78;;;11.60;99.90;;;;;;4881471;29;20039;-89
2023/06/05 04:06:40;;;;;;;6.80;3.92;;;11.60;99.90;;;;;;4882176;29;20056;-89
2023/06/05 04:09:11;;;;;;;8.07;3.40;;;11.70;99.90;;;;;;4878434;29;20040;-90
2023/06/05 04:11:42;;;;;;;6.97;4.30;;;11.70;99.90;;;;;;4882850;29;20104;-90
2023/06/05 04:14:09;;;;;;;7.95;4.50;;;11.70;99.90;;;;;;4882346;29;20044;-90
2023/06/05 04:16:38;;;;;;;5.85;4.53;;;11.70;99.90;;;;;;4878420;29;20100;-89
2023/06/05 04:19:07;;;;;;;7.85;4.63;;;11.70;99.90;;;;;;4880557;29;20091;-89
2023/06/05 04:21:36;;;;;;;6.15;4.70;;;11.80;99.90;;;;;;4877403;29;20088;-89
2023/06/05 04:24:25;;;;;;;12.63;4.85;;;11.80;99.90;;;;;;4880286;29;20410;-89
2023/06/05 04:26:51;;;;;;;7.35;4.88;;;11.80;99.90;;;;;;4881714;29;20040;-89
2023/06/05 04:29:18;;;;;;;9.10;5.10;;;11.80;99.90;;;;;;4882668;29;20567;-89
2023/06/05 04:31:45;;;;;;;7.97;5.20;;;11.90;99.90;;;;;;4879132;29;20112;-90
2023/06/05 04:34:12;;;;;;;10.35;5.07;;;11.90;99.90;;;;;;4871597;29;20062;-90
2023/06/05 04:36:38;;;;;;;8.85;5.32;;;12.00;99.90;;;;;;4880688;29;20048;-89
2023/06/05 04:39:14;;;;;;;12.02;5.53;;;12.00;99.90;;;;;;4881415;29;20091;-90
2023/06/05 04:41:44;;;;;;;10.95;5.25;;;12.10;99.90;;;;;;4881560;29;20060;-90
2023/06/05 04:44:12;;;;;;;7.47;4.97;;;12.10;99.90;;;;;;4880561;29;20460;-90
2023/06/05 04:46:39;;;;;;;10.20;5.70;;;12.10;99.90;;;;;;4881176;29;20048;-89
2023/06/05 04:49:06;;;;;;;40.97;5.90;;;12.10;99.90;;;;;;4870216;29;20058;-90
2023/06/05 04:51:33;;;;;;;46.13;5.90;;;12.20;99.90;;;;;;4875168;29;20056;-89
2023/06/05 04:54:11;;;;;;;8.00;4.25;;;12.20;99.90;;;;;;4889517;29;20139;-90
2023/06/05 04:56:38;;;;;;;5.13;3.58;;;12.20;99.90;;;;;;4870113;29;20056;-90
2023/06/05 04:59:03;;;;;;;7.65;3.72;;;12.30;99.90;;;;;;4880287;29;20040;-89
2023/06/05 05:01:30;;;;;;;7.05;3.55;;;12.30;99.90;;;;;;4881277;29;20063;-90
2023/06/05 05:03:55;;;;;;;4.40;2.97;;;12.40;99.90;;;;;;4880142;29;20040;-89
2023/06/05 05:06:22;;;;;;;6.47;3.08;;;12.40;99.90;;;;;;4880745;29;20054;-89
2023/06/05 05:08:48;;;;;;;5.15;2.83;;;12.50;99.90;;;;;;4881627;29;20047;-88
2023/06/05 05:11:14;;;;;;;10.25;3.35;;;12.50;99.90;;;;;;4876572;29;20048;-88
2023/06/05 05:13:41;;;;;;;8.63;2.80;;;12.50;99.90;;;;;;4873284;29;20135;-89
2023/06/05 05:16:08;;;;;;;9.20;3.22;;;12.50;99.90;;;;;;4880037;29;20497;-90
2023/06/05 05:18:34;;;;;;;4.55;2.50;;;12.60;99.90;;;;;;4880016;29;20110;-88
2023/06/05 05:21:01;;;;;;;5.53;2.33;;;12.60;99.90;;;;;;4877453;29;20072;-90
2023/06/05 05:23:27;;;;;;;5.93;3.20;;;12.70;99.90;;;;;;4874424;29;20051;-88
2023/06/05 05:25:52;;;;;;;5.20;2.83;;;12.70;99.90;;;;;;4874615;29;20049;-88
2023/06/05 05:28:22;;;;;;;4.45;2.65;;;12.70;99.90;;;;;;4872088;29;20052;-88
2023/06/05 05:30:47;;;;;;;5.00;2.90;;;12.70;99.90;;;;;;4873889;29;20515;-88
2023/06/05 05:33:14;;;;;;;203.20;12.80;;;12.80;99.90;;;;;;4874165;29;20044;-88
2023/06/05 05:35:40;;;;;;;9.63;3.25;;;12.90;99.90;;;;;;4877444;29;20101;-88
2023/06/05 05:38:06;;;;;;;4.97;2.78;;;12.90;99.90;;;;;;4874700;29;20087;-89
2023/06/05 05:40:32;;;;;;;7.80;2.40;;;12.90;99.90;;;;;;4878815;29;20162;-89
2023/06/05 05:42:57;;;;;;;3.92;2.22;;;12.90;99.90;;;;;;4893146;29;20056;-89
2023/06/05 05:45:23;;;;;;;7.47;2.45;;;13.00;99.90;;;;;;4869135;29;20048;-89
2023/06/05 05:47:49;;;;;;;6.05;2.70;;;13.00;99.90;;;;;;4878820;29;20100;-87
2023/06/05 05:50:15;;;;;;;5.25;2.30;;;13.10;99.90;;;;;;4869513;29;20055;-88
2023/06/05 05:52:44;;;;;;;4.75;2.70;;;13.10;99.90;;;;;;4880890;29;20162;-92
2023/06/05 05:55:10;;;;;;;20.38;2.72;;;13.20;99.90;;;;;;4879792;29;20052;-89
2023/06/05 05:57:36;;;;;;;3.70;2.10;;;13.20;99.90;;;;;;4880059;29;20084;-91
2023/06/05 06:00:08;;;;;;;6.07;2.55;;;13.20;99.90;;;;;;4881436;29;20074;-90
2023/06/05 06:02:34;;;;;;;4.35;2.25;;;13.30;99.90;;;;;;4879192;29;20116;-90
2023/06/05 06:05:03;;;;;;;6.97;2.13;;;13.40;99.90;;;;;;4880899;29;20090;-91
2023/06/05 06:07:40;;;;;;;10.48;2.40;;;13.40;99.90;;;;;;4878132;29;20059;-91
2023/06/05 06:10:07;;;;;;;5.97;2.20;;;13.50;99.90;;;;;;4880465;29;20055;-91
2023/06/05 06:12:41;;;;;;;6.55;2.50;;;13.60;99.90;;;;;;4876017;29;20147;-90
2023/06/05 06:15:07;;;;;;;4.82;2.30;;;13.60;99.90;;;;;;4873256;29;20044;-90
2023/06/05 06:17:33;;;;;;;5.10;2.70;;;13.70;99.90;;;;;;4880323;29;20044;-90
2023/06/05 06:19:59;;;;;;;2.78;1.75;;;13.80;99.90;;;;;;4882333;29;20510;-92
2023/06/05 06:22:30;;;;;;;6.72;2.20;;;13.80;99.90;;;;;;4882177;29;20519;-89
2023/06/05 06:24:56;;;;;;;5.97;2.00;;;13.70;99.90;;;;;;4882058;29;20040;-89
2023/06/05 06:27:22;;;;;;;5.40;2.65;;;13.90;99.90;;;;;;4893075;29;20512;-90
2023/06/05 06:29:52;;;;;;;12.10;2.55;;;14.00;99.90;;;;;;4879399;29;20139;-91
2023/06/05 06:32:22;;;;;;;4.65;2.05;;;14.10;99.90;;;;;;4878268;29;20137;-89
2023/06/05 06:34:47;;;;;;;3.50;1.60;;;14.30;99.90;;;;;;4881394;29;20041;-90
2023/06/05 06:37:14;;;;;;;4.13;1.65;;;14.40;99.90;;;;;;4882820;29;20055;-90
2023/06/05 06:39:41;;;;;;;4.40;1.63;;;14.50;99.90;;;;;;4877088;29;20039;-90
2023/06/05 06:42:10;;;;;;;6.30;1.80;;;14.50;99.90;;;;;;4879119;29;20055;-89
2023/06/05 06:44:44;;;;;;;3.72;1.55;;;14.50;99.90;;;;;;4878834;29;20134;-90
2023/06/05 06:47:10;;;;;;;7.30;1.70;;;14.40;99.90;;;;;;4880258;29;20499;-90
2023/06/05 06:49:36;;;;;;;15.30;2.28;;;14.40;99.90;;;;;;4872036;29;20059;-91
2023/06/05 06:52:02;;;;;;;4.55;1.80;;;14.30;99.90;;;;;;4879977;29;20040;-91
2023/06/05 06:54:28;;;;;;;5.05;1.70;;;14.30;99.90;;;;;;4882985;29;20416;-91
2023/06/05 06:56:56;;;;;;;3.40;1.63;;;14.30;99.90;;;;;;4883025;29;20056;-90
2023/06/05 06:59:22;;;;;;;13.02;2.08;;;14.30;99.90;;;;;;4880702;29;20147;-91
2023/06/05 07:02:09;;;;;;;9.48;2.13;;;14.20;99.90;;;;;;4880921;29;20053;-90
2023/06/05 07:04:35;;;;;;;2.97;1.50;;;14.10;99.90;;;;;;4879004;29;20104;-89
2023/06/05 07:07:01;;;;;;;2.97;1.60;;;14.20;99.90;;;;;;4886168;29;20055;-89
2023/06/05 07:09:27;;;;;;;7.78;1.80;;;14.30;99.90;;;;;;4882448;29;20052;-89
2023/06/05 07:11:54;;;;;;;6.43;1.63;;;14.40;99.90;;;;;;4877139;29;20054;-91
2023/06/05 07:14:21;;;;;;;3.50;2.00;;;14.60;99.90;;;;;;4882813;29;20052;-91
2023/06/05 07:16:46;;;;;;;5.88;1.90;;;14.70;99.90;;;;;;4880575;29;20052;-91
2023/06/05 07:19:13;;;;;;;19.23;1.92;;;14.80;99.90;;;;;;4878798;29;20148;-92
2023/06/05 07:21:39;;;;;;;7.93;2.03;;;14.90;99.90;;;;;;4874935;29;20045;-92
2023/06/05 07:24:14;;;;;;;3.70;2.03;;;15.10;99.90;;;;;;4885802;29;20071;-91
2023/06/05 07:26:41;;;;;;;8.13;2.15;;;15.20;99.90;;;;;;4881670;29;20048;-91
2023/06/05 07:29:06;;;;;;;5.28;2.60;;;15.20;99.90;;;;;;4881732;29;20055;-91
2023/06/05 07:31:32;;;;;;;7.43;2.42;;;15.20;99.90;;;;;;4877974;29;20049;-92
2023/06/05 07:33:58;;;;;;;6.00;2.05;;;15.20;99.90;;;;;;4897273;29;20064;-92
2023/06/05 07:36:24;;;;;;;4.20;2.33;;;15.10;99.90;;;;;;4893901;29;20048;-92
2023/06/05 07:38:50;;;;;;;5.50;1.90;;;15.10;99.90;;;;;;4871128;29;20052;-92
2023/06/05 07:41:15;;;;;;;6.43;1.98;;;15.00;99.90;;;;;;4866697;29;20049;-90
2023/06/05 07:43:42;;;;;;;3.40;2.05;;;15.00;99.90;;;;;;4891449;29;20501;-90
2023/06/05 07:46:25;;;;;;;4.25;1.88;;;15.00;99.90;;;;;;4879291;29;20044;-92
2023/06/05 07:48:51;;;;;;;4.38;2.17;;;15.10;99.90;;;;;;4900379;29;20051;-94
2023/06/05 07:51:18;;;;;;;4.10;1.73;;;15.20;99.90;;;;;;4873044;29;20044;-93
2023/06/05 07:53:44;;;;;;;5.20;1.90;;;15.50;99.90;;;;;;4875372;29;20049;-92
2023/06/05 08:03:07;;;;;;;3.75;1.73;;;15.90;99.90;;;;;;4915594;29;20059;-92
2023/06/05 08:05:36;;;;;;;4.57;2.10;;;16.00;99.90;;;;;;4881605;29;20063;-93
2023/06/05 08:08:02;;;;;;;4.13;2.08;;;16.20;99.90;;;;;;4882121;29;20040;-89
2023/06/05 08:10:28;;;;;;;4.05;1.98;;;16.20;99.90;;;;;;4881271;29;20181;-88
2023/06/05 08:12:53;;;;;;;6.93;2.42;;;16.30;99.90;;;;;;4882562;29;20099;-86
2023/06/05 08:15:19;;;;;;;4.55;2.83;;;16.30;99.90;;;;;;4884357;29;20045;-86
2023/06/05 08:17:45;;;;;;;5.47;2.38;;;16.40;99.90;;;;;;4886351;29;20084;-88
2023/06/05 08:20:11;;;;;;;3.47;2.35;;;16.30;99.90;;;;;;4882473;29;20040;-87
2023/06/05 08:22:40;;;;;;;5.43;2.22;;;16.30;99.90;;;;;;4874019;29;20067;-86
2023/06/05 08:25:06;;;;;;;5.47;2.38;;;16.30;99.90;;;;;;4874466;29;20052;-86
2023/06/05 08:27:32;;;;;;;4.88;2.17;;;16.40;99.90;;;;;;4885632;29;20123;-92
2023/06/05 08:30:01;;;;;;;3.15;2.13;;;16.50;99.90;;;;;;4870409;29;20131;-86
2023/06/05 08:32:27;;;;;;;5.05;2.33;;;16.60;99.90;;;;;;4885729;29;20131;-88
2023/06/05 08:34:52;;;;;;;6.00;2.33;;;16.60;99.90;;;;;;4869993;29;20131;-87
2023/06/05 08:37:23;;;;;;;19.10;4.90;;;16.70;99.90;;;;;;4865786;29;20110;-92
2023/06/05 08:39:51;;;;;;;4.60;2.15;;;16.80;99.90;;;;;;4891706;29;20048;-86
2023/06/05 08:42:20;;;;;;;13.00;4.15;;;16.90;99.90;;;;;;4876695;29;20085;-86
2023/06/05 08:44:47;;;;;;;5.00;2.40;;;17.00;99.90;;;;;;4882311;29;20079;-90
2023/06/05 08:47:15;;;;;;;6.05;2.38;;;17.10;99.90;;;;;;4882214;29;20079;-89
2023/06/05 08:49:41;;;;;;;5.20;2.40;;;17.20;99.90;;;;;;4891618;29;20076;-88
2023/06/05 08:52:09;;;;;;;4.10;2.50;;;17.40;99.90;;;;;;4888679;29;20044;-89
2023/06/05 08:54:38;;;;;;;7.93;2.78;;;17.50;99.90;;;;;;4890749;29;20083;-87
2023/06/05 08:57:30;;;;;;;5.65;2.33;;;17.60;99.90;;;;;;4874289;29;20051;-89
2023/06/05 08:59:59;;;;;;;5.78;2.50;;;17.70;99.90;;;;;;4863798;29;20045;-88
2023/06/05 09:02:24;;;;;;;5.55;2.55;;;17.70;99.90;;;;;;4865448;29;20056;-89
2023/06/05 09:04:51;;;;;;;7.50;2.50;;;17.70;99.90;;;;;;4874995;29;20050;-87
2023/06/05 09:07:18;;;;;;;4.43;2.90;;;17.60;99.90;;;;;;4879857;29;20123;-87
2023/06/05 09:09:43;;;;;;;4.93;2.90;;;17.60;99.90;;;;;;4870128;29;20045;-87
2023/06/05 09:12:11;;;;;;;8.57;2.83;;;17.60;99.90;;;;;;4862303;29;20509;-89
2023/06/05 09:14:40;;;;;;;4.88;2.50;;;17.70;99.90;;;;;;4878669;29;20049;-88
2023/06/05 09:17:12;;;;;;;3.88;2.60;;;17.70;99.90;;;;;;4853365;23;20056;-86
2023/06/05 09:19:43;;;;;;;4.25;2.03;;;17.60;99.90;;;;;;4874962;29;20470;-90
2023/06/05 09:22:10;;;;;;;3.40;1.83;;;17.80;99.90;;;;;;4855576;29;20048;-88
2023/06/05 09:24:37;;;;;;;5.43;2.53;;;17.90;99.90;;;;;;4859028;29;20194;-88
2023/06/05 09:27:06;;;;;;;4.50;2.38;;;18.00;99.90;;;;;;4848107;29;20117;-87
2023/06/05 09:29:36;;;;;;;4.57;2.70;;;18.00;99.90;;;;;;4867415;29;20057;-90
2023/06/05 09:32:04;;;;;;;6.63;2.72;;;18.10;99.90;;;;;;4878575;29;20040;-88
2023/06/05 09:34:32;;;;;;;5.05;1.92;;;18.00;99.90;;;;;;4851017;29;20669;-87
2023/06/05 09:37:00;;;;;;;4.75;2.00;;;18.10;99.90;;;;;;4858876;29;20100;-89
2023/06/05 09:39:27;;;;;;;4.57;2.50;;;18.20;99.90;;;;;;4859452;29;20045;-88
2023/06/05 09:41:55;;;;;;;3.90;1.85;;;18.20;99.90;;;;;;4860470;29;20077;-89
2023/06/05 09:44:21;;;;;;;5.00;2.08;;;18.20;99.90;;;;;;4860190;29;20052;-89
2023/06/05 09:46:52;;;;;;;4.18;2.10;;;18.20;99.90;;;;;;4856377;29;20501;-89
2023/06/05 09:49:19;;;;;;;7.07;1.98;;;18.40;99.90;;;;;;4844918;29;20056;-87
2023/06/05 09:51:46;;;;;;;4.15;2.33;;;18.50;99.90;;;;;;4858757;29;20063;-90
2023/06/05 09:54:13;;;;;;;3.70;1.90;;;18.50;99.90;;;;;;4841145;29;20868;-87
2023/06/05 09:56:41;;;;;;;4.65;2.15;;;18.60;99.90;;;;;;4872111;29;20057;-88
2023/06/05 09:59:09;;;;;;;6.97;2.17;;;18.70;99.90;;;;;;4875341;29;20053;-89
2023/06/05 10:01:40;;;;;;;6.50;1.83;;;18.50;99.90;;;;;;4862735;29;20051;-92
2023/06/05 10:04:08;;;;;;;3.65;2.15;;;18.50;99.90;;;;;;4852284;29;20948;-88
2023/06/05 10:06:36;;;;;;;5.10;2.03;;;18.50;99.90;;;;;;4855691;29;20041;-87
2023/06/05 10:09:03;;;;;;;4.65;2.20;;;18.60;99.90;;;;;;4864185;29;20524;-88
2023/06/05 10:11:29;;;;;;;3.85;1.90;;;18.70;99.90;;;;;;4861925;29;20052;-89
2023/06/05 10:13:58;;;;;;;5.72;1.95;;;18.70;99.90;;;;;;4860754;29;21548;-88
2023/06/05 10:16:28;;;;;;;3.78;2.03;;;18.60;99.90;;;;;;4860407;29;20141;-89
2023/06/05 10:18:56;;;;;;;4.63;1.55;;;18.80;99.90;;;;;;4875064;29;20056;-89
2023/06/05 10:21:23;;;;;;;4.47;2.00;;;18.90;99.90;;;;;;4862856;29;20056;-89
2023/06/05 10:23:55;;;;;;;2.80;1.50;;;18.90;99.90;;;;;;4835840;29;20042;-89
2023/06/05 10:26:46;;;;;;;4.35;2.10;;;19.00;99.90;;;;;;4846143;29;20086;-89
2023/06/05 10:29:33;;;;;;;3.38;1.60;;;19.00;99.90;;;;;;4853985;29;20132;-89
2023/06/05 10:32:05;;;;;;;4.70;1.70;;;19.10;99.90;;;;;;4863449;29;20049;-89
2023/06/05 10:34:58;;;;;;;7.33;1.67;;;19.20;99.90;;;;;;4852512;29;20057;-89
2023/06/05 10:37:37;;;;;;;3.88;2.00;;;19.30;99.90;;;;;;4840164;29;20505;-89
2023/06/05 10:40:04;;;;;;;4.72;1.92;;;19.30;99.90;;;;;;4857817;29;20053;-89
2023/06/05 10:42:30;;;;;;;3.90;1.55;;;19.30;99.90;;;;;;4860465;29;20057;-89
2023/06/05 10:44:56;;;;;;;4.57;1.77;;;19.20;99.90;;;;;;4838809;29;20072;-89
2023/06/05 10:47:32;;;;;;;3.17;1.70;;;19.10;99.90;;;;;;4849930;29;20391;-89
2023/06/05 10:50:20;;;;;;;5.25;1.70;;;19.00;99.90;;;;;;4857611;29;20424;-89
2023/06/05 10:52:48;;;;;;;3.85;1.60;;;18.90;99.90;;;;;;4859674;29;20041;-88
2023/06/05 10:55:15;;;;;;;4.78;1.75;;;18.90;99.90;;;;;;4858352;29;20084;-88
2023/06/05 10:58:01;;;;;;;3.53;1.60;;;19.00;99.90;;;;;;4844467;29;20519;-90
2023/06/05 11:00:28;;;;;;;5.20;1.42;;;19.00;99.90;;;;;;4835782;29;20053;-89
2023/06/05 11:02:54;;;;;;;3.85;1.50;;;19.10;99.90;;;;;;4856456;29;20493;-90
2023/06/05 11:05:20;;;;;;;8.43;2.15;;;19.10;99.90;;;;;;4853061;29;20140;-88
2023/06/05 11:07:46;;;;;;;3.00;1.67;;;19.20;99.90;;;;;;4861364;29;20048;-90
2023/06/05 11:10:17;;;;;;;5.82;1.90;;;19.30;99.90;;;;;;4862107;29;20530;-89
2023/06/05 11:12:43;;;;;;;3.88;2.10;;;19.30;99.90;;;;;;4857812;29;20497;-90
2023/06/05 11:15:12;;;;;;;4.65;1.90;;;19.30;99.90;;;;;;4843609;29;20052;-88
2023/06/05 11:17:39;;;;;;;4.82;1.83;;;19.30;99.90;;;;;;4863305;29;20494;-88
2023/06/05 11:20:09;;;;;;;4.63;1.67;;;19.40;99.90;;;;;;4850536;29;20099;-89
2023/06/05 11:22:53;;;;;;;3.60;1.65;;;19.30;99.90;;;;;;4863833;29;20056;-88
2023/06/05 11:25:24;;;;;;;4.63;1.95;;;19.30;99.90;;;;;;4857032;29;20056;-88
2023/06/05 11:27:52;;;;;;;3.25;1.48;;;19.40;99.90;;;;;;4875038;29;20056;-88
2023/06/05 11:30:20;;;;;;;5.20;2.00;;;19.40;99.90;;;;;;4863933;29;20044;-89
2023/06/05 11:32:46;;;;;;;3.03;1.70;;;19.40;99.90;;;;;;4858099;29;20056;-88
2023/06/05 11:35:12;;;;;;;5.47;1.83;;;19.40;99.90;;;;;;4847333;29;20063;-88
2023/06/05 11:37:39;;;;;;;3.30;1.63;;;19.50;99.90;;;;;;4846509;29;20136;-89
2023/06/05 11:40:09;;;;;;;5.05;1.70;;;19.50;99.90;;;;;;4843308;29;20042;-89
2023/06/05 11:42:35;;;;;;;3.88;2.22;;;19.50;99.90;;;;;;4865198;29;20127;-88
2023/06/05 11:45:12;;;;;;;10.23;1.98;;;19.50;99.90;;;;;;4856053;29;20176;-87
2023/06/05 11:48:06;;;;;;;5.05;1.95;;;19.60;99.90;;;;;;4852348;29;20454;-91
2023/06/05 11:50:31;;;;;;;6.03;1.60;;;19.70;99.90;;;;;;4845895;29;20085;-90
2023/06/05 11:53:08;;;;;;;4.78;2.03;;;19.70;99.90;;;;;;4859397;29;20046;-91
2023/06/05 11:55:54;;;;;;;6.10;1.70;;;19.70;99.90;;;;;;4855839;29;20553;-90
2023/06/05 11:58:25;;;;;;;5.78;1.80;;;19.60;99.90;;;;;;4855617;29;20053;-91
2023/06/05 12:01:14;;;;;;;3.65;1.67;;;19.60;99.90;;;;;;4857134;29;20404;-90
2023/06/05 12:04:05;;;;;;;3.10;1.27;;;19.50;99.90;;;;;;4862822;29;20156;-90
2023/06/05 12:06:42;;;;;;;4.03;1.90;;;19.60;99.90;;;;;;4855649;29;20093;-90
2023/06/05 12:09:46;;;;;;;7.00;1.70;;;19.60;99.90;;;;;;4859429;29;20045;-87
2023/06/05 12:12:12;;;;;;;4.50;1.73;;;19.60;99.90;;;;;;4859234;29;20064;-86
2023/06/05 12:15:23;;;;;;;;;;;;;;;;;;;;;
2023/06/05 12:17:56;;;;;;;4.70;1.95;;;19.80;99.90;;;;;;4845657;29;20113;-89
2023/06/05 12:20:26;;;;;;;3.58;1.52;;;19.70;99.90;;;;;;4828202;29;20144;-90
2023/06/05 12:22:52;;;;;;;4.65;1.63;;;19.70;99.90;;;;;;4832803;29;20056;-90
2023/06/05 12:25:21;;;;;;;3.70;1.75;;;19.60;99.90;;;;;;4829296;29;20057;-90
2023/06/05 12:27:49;;;;;;;4.45;1.60;;;19.60;99.90;;;;;;4826946;29;20042;-90
2023/06/05 12:30:16;;;;;;;7.28;1.50;;;19.60;99.90;;;;;;4827032;29;20041;-89
2023/06/05 12:32:43;;;;;;;6.03;1.95;;;19.50;99.90;;;;;;4832219;29;20250;-90
2023/06/05 12:35:20;;;;;;;5.72;1.80;;;19.60;99.90;;;;;;4825275;29;20042;-89
2023/06/05 12:37:47;;;;;;;3.13;1.52;;;19.50;99.90;;;;;;4819584;29;20124;-90
2023/06/05 12:40:14;;;;;;;3.75;1.80;;;19.40;99.90;;;;;;4822637;29;20433;-90
2023/06/05 12:42:43;;;;;;;6.30;2.08;;;19.30;99.90;;;;;;4848037;29;20485;-89
2023/06/05 12:45:10;;;;;;;4.70;1.50;;;19.30;99.90;;;;;;4830974;29;20039;-90
2023/06/05 12:47:37;;;;;;;4.22;1.48;;;19.10;99.90;;;;;;4825892;29;20046;-89
2023/06/05 12:50:05;;;;;;;4.47;1.95;;;19.20;99.90;;;;;;4826180;29;20159;-91
2023/06/05 12:52:31;;;;;;;7.85;2.22;;;19.30;99.90;;;;;;4826755;29;20078;-90
2023/06/05 12:54:57;;;;;;;4.22;1.75;;;19.30;99.90;;;;;;4828394;29;20573;-90
2023/06/05 12:57:24;;;;;;;4.63;1.70;;;19.30;99.90;;;;;;4846680;29;20088;-89
2023/06/05 12:59:53;;;;;;;6.53;2.00;;;19.30;99.90;;;;;;4831848;29;20041;-90